This is the latest recevied weather packets stored in our database for station/object SP2TMT-10. If no packets are shown the sender has not sent any weather packets the latest 10 day(s).
| Time | Temp. | Humidity | Pressure | Rain* | Wind** | Luminosity | Snow |
|---|---|---|---|---|---|---|---|
| 1777834699 | 22.78° C | 34% | 1011.6 hPa | - | - | - | - |
| 1777833861 | 22.78° C | 34% | 1011.6 hPa | - | - | - | - |
| 1777833799 | 22.78° C | 34% | 1011.6 hPa | - | - | - | - |
| 1777832899 | 22.78° C | 36% | 1011.5 hPa | - | - | - | - |
| 1777831999 | 23.33° C | 36% | 1011.4 hPa | - | - | - | - |
| 1777831099 | 23.33° C | 36% | 1011.4 hPa | - | - | - | - |
| 1777830199 | 24.44° C | 37% | 1011.3 hPa | - | - | - | - |
| 1777829299 | 25° C | 42% | 1011.3 hPa | - | - | - | - |
| 1777828399 | 27.22° C | 47% | 1011.3 hPa | - | - | - | - |
| 1777827499 | 23.33° C | 36% | 1011.3 hPa | - | - | - | - |
| 1777826593 | 23.33° C | 40% | 1011.3 hPa | - | - | - | - |
| 1777825693 | 22.78° C | 38% | 1011.5 hPa | - | - | - | - |
| 1777824793 | 22.22° C | 31% | 1011.4 hPa | - | - | - | - |
| 1777823893 | 22.22° C | 25% | 1011.6 hPa | - | - | - | - |
| 1777822993 | 22.22° C | 25% | 1011.5 hPa | - | - | - | - |
| 1777822093 | 22.22° C | 28% | 1011.6 hPa | - | - | - | - |
| 1777821193 | 22.22° C | 26% | 1011.7 hPa | - | - | - | - |
| 1777820292 | 22.22° C | 27% | 1011.8 hPa | - | - | - | - |
| 1777819392 | 22.22° C | 27% | 1011.9 hPa | - | - | - | - |
| 1777818492 | 21.67° C | 30% | 1012.1 hPa | - | - | - | - |
| 1777817592 | 21.67° C | 29% | 1012.2 hPa | - | - | - | - |
| 1777816692 | 21.67° C | 28% | 1012.5 hPa | - | - | - | - |
| 1777815792 | 22.22° C | 28% | 1012.6 hPa | - | - | - | - |
| 1777814892 | 21.67° C | 30% | 1012.9 hPa | - | - | - | - |
| 1777813992 | 21.67° C | 28% | 1013 hPa | - | - | - | - |
* Rain since midnight (hover to see other rain measurements)
** Current wind speed in m/s (hover to see current wind gust speed)